sensor_id;sensor_type;location;lat;lon;timestamp;temperature;humidity
10245;DHT22;5167;52.164;10.530;2023-02-24T00:00:12;7.70;54.30
10245;DHT22;5167;52.164;10.530;2023-02-24T00:02:55;7.70;54.70
10245;DHT22;5167;52.164;10.530;2023-02-24T00:05:20;7.70;54.60
10245;DHT22;5167;52.164;10.530;2023-02-24T00:07:48;7.70;54.30
10245;DHT22;5167;52.164;10.530;2023-02-24T00:10:13;7.80;54.80
10245;DHT22;5167;52.164;10.530;2023-02-24T00:12:46;7.70;54.00
10245;DHT22;5167;52.164;10.530;2023-02-24T00:15:13;7.70;54.10
10245;DHT22;5167;52.164;10.530;2023-02-24T00:17:39;7.80;53.30
10245;DHT22;5167;52.164;10.530;2023-02-24T00:20:05;7.70;53.10
10245;DHT22;5167;52.164;10.530;2023-02-24T00:22:32;7.70;52.20
10245;DHT22;5167;52.164;10.530;2023-02-24T00:24:57;7.70;51.40
10245;DHT22;5167;52.164;10.530;2023-02-24T00:27:26;7.60;50.70
10245;DHT22;5167;52.164;10.530;2023-02-24T00:29:52;7.60;50.60
10245;DHT22;5167;52.164;10.530;2023-02-24T00:32:18;7.60;50.60
10245;DHT22;5167;52.164;10.530;2023-02-24T00:34:43;7.60;50.50
10245;DHT22;5167;52.164;10.530;2023-02-24T00:37:09;7.60;50.60
10245;DHT22;5167;52.164;10.530;2023-02-24T00:39:35;7.70;50.60
10245;DHT22;5167;52.164;10.530;2023-02-24T00:42:03;7.60;50.40
10245;DHT22;5167;52.164;10.530;2023-02-24T00:44:32;7.50;50.00
10245;DHT22;5167;52.164;10.530;2023-02-24T00:46:58;7.60;50.40
10245;DHT22;5167;52.164;10.530;2023-02-24T00:49:25;7.60;49.50
10245;DHT22;5167;52.164;10.530;2023-02-24T00:51:51;7.50;49.70
10245;DHT22;5167;52.164;10.530;2023-02-24T00:54:19;7.60;49.50
10245;DHT22;5167;52.164;10.530;2023-02-24T00:56:46;7.50;48.40
10245;DHT22;5167;52.164;10.530;2023-02-24T00:59:13;7.50;47.80
10245;DHT22;5167;52.164;10.530;2023-02-24T01:01:40;7.60;47.50
10245;DHT22;5167;52.164;10.530;2023-02-24T01:04:07;7.60;47.80
10245;DHT22;5167;52.164;10.530;2023-02-24T01:06:38;7.50;48.00
10245;DHT22;5167;52.164;10.530;2023-02-24T01:09:05;7.50;47.40
10245;DHT22;5167;52.164;10.530;2023-02-24T01:11:36;7.50;47.30
10245;DHT22;5167;52.164;10.530;2023-02-24T01:14:23;7.60;48.20
10245;DHT22;5167;52.164;10.530;2023-02-24T01:16:49;7.50;48.20
10245;DHT22;5167;52.164;10.530;2023-02-24T01:19:22;7.60;48.00
10245;DHT22;5167;52.164;10.530;2023-02-24T01:21:49;7.50;47.60
10245;DHT22;5167;52.164;10.530;2023-02-24T01:24:20;7.40;47.20
10245;DHT22;5167;52.164;10.530;2023-02-24T01:26:46;7.40;47.10
10245;DHT22;5167;52.164;10.530;2023-02-24T01:29:12;7.30;47.80
10245;DHT22;5167;52.164;10.530;2023-02-24T01:31:38;7.30;47.60
10245;DHT22;5167;52.164;10.530;2023-02-24T01:34:07;7.40;46.70
10245;DHT22;5167;52.164;10.530;2023-02-24T01:36:36;7.30;46.60
10245;DHT22;5167;52.164;10.530;2023-02-24T01:39:02;7.50;47.70
10245;DHT22;5167;52.164;10.530;2023-02-24T01:41:30;7.20;48.10
10245;DHT22;5167;52.164;10.530;2023-02-24T01:44:56;7.20;47.70
10245;DHT22;5167;52.164;10.530;2023-02-24T01:46:49;7.20;48.80
10245;DHT22;5167;52.164;10.530;2023-02-24T01:49:33;7.20;48.70
10245;DHT22;5167;52.164;10.530;2023-02-24T01:52:08;7.20;49.00
10245;DHT22;5167;52.164;10.530;2023-02-24T01:54:39;7.30;49.50
10245;DHT22;5167;52.164;10.530;2023-02-24T01:57:08;7.30;49.50
10245;DHT22;5167;52.164;10.530;2023-02-24T01:59:35;7.20;49.60
10245;DHT22;5167;52.164;10.530;2023-02-24T02:02:03;7.20;49.30
10245;DHT22;5167;52.164;10.530;2023-02-24T02:04:41;7.30;49.00
10245;DHT22;5167;52.164;10.530;2023-02-24T02:07:10;7.20;49.20
10245;DHT22;5167;52.164;10.530;2023-02-24T02:09:38;7.20;49.50
10245;DHT22;5167;52.164;10.530;2023-02-24T02:12:06;7.30;49.40
10245;DHT22;5167;52.164;10.530;2023-02-24T02:14:31;7.30;50.60
10245;DHT22;5167;52.164;10.530;2023-02-24T02:28:35;7.20;51.10
10245;DHT22;5167;52.164;10.530;2023-02-24T02:39:52;7.20;50.50
10245;DHT22;5167;52.164;10.530;2023-02-24T02:42:29;7.30;49.70
10245;DHT22;5167;52.164;10.530;2023-02-24T02:46:05;7.30;50.00
10245;DHT22;5167;52.164;10.530;2023-02-24T02:48:04;7.30;49.80
10245;DHT22;5167;52.164;10.530;2023-02-24T02:50:41;7.20;47.60
10245;DHT22;5167;52.164;10.530;2023-02-24T02:53:32;7.20;48.60
10245;DHT22;5167;52.164;10.530;2023-02-24T02:56:11;7.30;48.10
10245;DHT22;5167;52.164;10.530;2023-02-24T02:58:42;7.20;46.80
10245;DHT22;5167;52.164;10.530;2023-02-24T03:01:11;7.30;45.80
10245;DHT22;5167;52.164;10.530;2023-02-24T03:03:44;7.20;45.20
10245;DHT22;5167;52.164;10.530;2023-02-24T03:06:33;7.30;44.70
10245;DHT22;5167;52.164;10.530;2023-02-24T03:09:06;7.20;44.10
10245;DHT22;5167;52.164;10.530;2023-02-24T03:11:43;7.30;43.80
10245;DHT22;5167;52.164;10.530;2023-02-24T03:14:14;7.30;41.80
10245;DHT22;5167;52.164;10.530;2023-02-24T03:16:43;7.20;41.90
10245;DHT22;5167;52.164;10.530;2023-02-24T03:19:21;7.30;41.00
10245;DHT22;5167;52.164;10.530;2023-02-24T03:22:14;7.20;40.60
10245;DHT22;5167;52.164;10.530;2023-02-24T03:24:40;7.20;40.80
10245;DHT22;5167;52.164;10.530;2023-02-24T03:27:18;7.30;40.60
10245;DHT22;5167;52.164;10.530;2023-02-24T03:29:51;7.30;39.90
10245;DHT22;5167;52.164;10.530;2023-02-24T03:32:28;7.20;39.40
10245;DHT22;5167;52.164;10.530;2023-02-24T03:35:13;7.30;39.60
10245;DHT22;5167;52.164;10.530;2023-02-24T03:37:39;7.30;39.40
10245;DHT22;5167;52.164;10.530;2023-02-24T03:40:07;7.20;39.10
10245;DHT22;5167;52.164;10.530;2023-02-24T03:42:41;7.20;39.10
10245;DHT22;5167;52.164;10.530;2023-02-24T03:45:08;7.20;39.70
10245;DHT22;5167;52.164;10.530;2023-02-24T03:47:34;7.20;39.30
10245;DHT22;5167;52.164;10.530;2023-02-24T03:49:59;7.20;38.60
10245;DHT22;5167;52.164;10.530;2023-02-24T03:52:53;7.20;38.70
10245;DHT22;5167;52.164;10.530;2023-02-24T03:58:56;7.20;38.10
10245;DHT22;5167;52.164;10.530;2023-02-24T04:01:40;7.20;37.70
10245;DHT22;5167;52.164;10.530;2023-02-24T04:04:51;7.20;37.50
10245;DHT22;5167;52.164;10.530;2023-02-24T04:07:54;7.10;37.40
10245;DHT22;5167;52.164;10.530;2023-02-24T04:13:11;7.10;38.40
10245;DHT22;5167;52.164;10.530;2023-02-24T04:15:47;7.10;38.60
10245;DHT22;5167;52.164;10.530;2023-02-24T04:18:22;7.10;38.70
10245;DHT22;5167;52.164;10.530;2023-02-24T04:20:49;7.10;38.80
10245;DHT22;5167;52.164;10.530;2023-02-24T04:23:21;7.10;38.90
10245;DHT22;5167;52.164;10.530;2023-02-24T04:25:50;7.10;38.10
10245;DHT22;5167;52.164;10.530;2023-02-24T04:28:16;7.20;38.00
10245;DHT22;5167;52.164;10.530;2023-02-24T04:30:49;7.20;37.40
10245;DHT22;5167;52.164;10.530;2023-02-24T04:33:16;7.20;36.20
10245;DHT22;5167;52.164;10.530;2023-02-24T04:35:45;7.10;37.40
10245;DHT22;5167;52.164;10.530;2023-02-24T04:38:15;7.20;36.90
10245;DHT22;5167;52.164;10.530;2023-02-24T04:40:40;7.10;36.30
10245;DHT22;5167;52.164;10.530;2023-02-24T04:43:06;7.10;36.70
10245;DHT22;5167;52.164;10.530;2023-02-24T04:45:32;7.00;35.90
10245;DHT22;5167;52.164;10.530;2023-02-24T04:48:00;7.10;36.00
10245;DHT22;5167;52.164;10.530;2023-02-24T04:50:29;7.10;36.50
10245;DHT22;5167;52.164;10.530;2023-02-24T04:52:57;7.10;35.20
10245;DHT22;5167;52.164;10.530;2023-02-24T04:55:26;7.00;35.70
10245;DHT22;5167;52.164;10.530;2023-02-24T04:57:55;7.10;35.10
10245;DHT22;5167;52.164;10.530;2023-02-24T05:00:21;7.00;34.70
10245;DHT22;5167;52.164;10.530;2023-02-24T05:02:51;7.00;34.60
10245;DHT22;5167;52.164;10.530;2023-02-24T05:05:19;7.00;34.50
10245;DHT22;5167;52.164;10.530;2023-02-24T05:08:00;7.00;34.40
10245;DHT22;5167;52.164;10.530;2023-02-24T05:10:49;7.00;35.00
10245;DHT22;5167;52.164;10.530;2023-02-24T05:13:20;7.00;34.40
10245;DHT22;5167;52.164;10.530;2023-02-24T05:15:46;7.00;34.00
10245;DHT22;5167;52.164;10.530;2023-02-24T05:18:14;7.00;34.60
10245;DHT22;5167;52.164;10.530;2023-02-24T05:20:43;7.00;33.80
10245;DHT22;5167;52.164;10.530;2023-02-24T05:23:30;6.90;33.50
10245;DHT22;5167;52.164;10.530;2023-02-24T05:25:56;7.10;33.10
10245;DHT22;5167;52.164;10.530;2023-02-24T05:28:23;6.90;33.10
10245;DHT22;5167;52.164;10.530;2023-02-24T05:30:50;6.90;33.00
10245;DHT22;5167;52.164;10.530;2023-02-24T05:33:16;6.90;32.60
10245;DHT22;5167;52.164;10.530;2023-02-24T05:35:49;6.90;31.20
10245;DHT22;5167;52.164;10.530;2023-02-24T05:38:17;6.90;30.90
10245;DHT22;5167;52.164;10.530;2023-02-24T05:40:46;6.90;30.00
10245;DHT22;5167;52.164;10.530;2023-02-24T05:43:12;6.90;30.80
10245;DHT22;5167;52.164;10.530;2023-02-24T05:45:43;6.90;30.40
10245;DHT22;5167;52.164;10.530;2023-02-24T05:48:10;6.90;29.20
10245;DHT22;5167;52.164;10.530;2023-02-24T05:50:36;6.90;28.50
10245;DHT22;5167;52.164;10.530;2023-02-24T05:53:03;7.00;28.40
10245;DHT22;5167;52.164;10.530;2023-02-24T05:55:29;6.80;27.60
10245;DHT22;5167;52.164;10.530;2023-02-24T05:57:56;6.80;26.70
10245;DHT22;5167;52.164;10.530;2023-02-24T06:00:23;6.70;27.10
10245;DHT22;5167;52.164;10.530;2023-02-24T06:02:50;6.70;26.80
10245;DHT22;5167;52.164;10.530;2023-02-24T06:05:17;6.70;26.40
10245;DHT22;5167;52.164;10.530;2023-02-24T06:07:57;6.70;24.90
10245;DHT22;5167;52.164;10.530;2023-02-24T06:10:30;6.70;24.30
10245;DHT22;5167;52.164;10.530;2023-02-24T06:12:56;6.60;23.70
10245;DHT22;5167;52.164;10.530;2023-02-24T06:15:21;6.60;23.10
10245;DHT22;5167;52.164;10.530;2023-02-24T06:17:47;6.60;22.70
10245;DHT22;5167;52.164;10.530;2023-02-24T06:20:13;6.70;23.10
10245;DHT22;5167;52.164;10.530;2023-02-24T06:22:40;6.60;22.50
10245;DHT22;5167;52.164;10.530;2023-02-24T06:25:08;7.00;22.70
10245;DHT22;5167;52.164;10.530;2023-02-24T06:27:35;6.60;21.80
10245;DHT22;5167;52.164;10.530;2023-02-24T06:30:04;6.60;22.10
10245;DHT22;5167;52.164;10.530;2023-02-24T06:32:35;6.70;21.10
10245;DHT22;5167;52.164;10.530;2023-02-24T06:35:00;6.60;20.60
10245;DHT22;5167;52.164;10.530;2023-02-24T06:37:26;6.60;20.00
10245;DHT22;5167;52.164;10.530;2023-02-24T06:39:52;6.60;20.30
10245;DHT22;5167;52.164;10.530;2023-02-24T06:42:18;6.60;18.20
10245;DHT22;5167;52.164;10.530;2023-02-24T06:44:44;6.50;18.70
10245;DHT22;5167;52.164;10.530;2023-02-24T06:47:11;6.50;17.40
10245;DHT22;5167;52.164;10.530;2023-02-24T06:49:37;6.40;15.80
10245;DHT22;5167;52.164;10.530;2023-02-24T06:52:03;6.30;16.60
10245;DHT22;5167;52.164;10.530;2023-02-24T06:54:29;6.30;16.70
10245;DHT22;5167;52.164;10.530;2023-02-24T06:56:58;6.30;17.50
10245;DHT22;5167;52.164;10.530;2023-02-24T06:59:24;6.30;17.40
10245;DHT22;5167;52.164;10.530;2023-02-24T07:01:54;6.30;17.00
10245;DHT22;5167;52.164;10.530;2023-02-24T07:04:20;6.10;17.20
10245;DHT22;5167;52.164;10.530;2023-02-24T07:06:53;6.10;16.50
10245;DHT22;5167;52.164;10.530;2023-02-24T07:09:22;6.00;17.20
10245;DHT22;5167;52.164;10.530;2023-02-24T07:11:49;6.10;16.40
10245;DHT22;5167;52.164;10.530;2023-02-24T07:14:21;5.90;16.30
10245;DHT22;5167;52.164;10.530;2023-02-24T07:16:48;6.20;16.70
10245;DHT22;5167;52.164;10.530;2023-02-24T07:19:22;5.90;16.70
10245;DHT22;5167;52.164;10.530;2023-02-24T07:21:48;5.90;15.60
10245;DHT22;5167;52.164;10.530;2023-02-24T07:24:19;6.00;15.20
10245;DHT22;5167;52.164;10.530;2023-02-24T07:27:07;5.90;14.90
10245;DHT22;5167;52.164;10.530;2023-02-24T07:29:35;5.80;15.00
10245;DHT22;5167;52.164;10.530;2023-02-24T07:32:03;5.80;15.00
10245;DHT22;5167;52.164;10.530;2023-02-24T07:34:30;5.80;15.70
10245;DHT22;5167;52.164;10.530;2023-02-24T07:36:57;5.80;16.20
10245;DHT22;5167;52.164;10.530;2023-02-24T07:39:23;5.80;15.70
10245;DHT22;5167;52.164;10.530;2023-02-24T07:41:51;5.90;15.80
10245;DHT22;5167;52.164;10.530;2023-02-24T07:44:18;5.90;15.90
10245;DHT22;5167;52.164;10.530;2023-02-24T07:46:45;6.00;15.20
10245;DHT22;5167;52.164;10.530;2023-02-24T07:49:14;5.90;15.00
10245;DHT22;5167;52.164;10.530;2023-02-24T07:51:40;6.00;14.30
10245;DHT22;5167;52.164;10.530;2023-02-24T07:54:07;6.00;14.40
10245;DHT22;5167;52.164;10.530;2023-02-24T07:56:33;6.00;15.10
10245;DHT22;5167;52.164;10.530;2023-02-24T07:59:01;6.00;14.30
10245;DHT22;5167;52.164;10.530;2023-02-24T08:01:29;6.00;13.90
10245;DHT22;5167;52.164;10.530;2023-02-24T08:04:01;5.90;13.30
10245;DHT22;5167;52.164;10.530;2023-02-24T08:06:32;6.00;14.30
10245;DHT22;5167;52.164;10.530;2023-02-24T08:09:04;6.00;14.00
10245;DHT22;5167;52.164;10.530;2023-02-24T08:14:11;6.00;14.20
10245;DHT22;5167;52.164;10.530;2023-02-24T08:16:46;6.10;14.60
10245;DHT22;5167;52.164;10.530;2023-02-24T08:19:14;6.10;14.40
10245;DHT22;5167;52.164;10.530;2023-02-24T08:21:45;6.10;14.50
10245;DHT22;5167;52.164;10.530;2023-02-24T08:24:20;6.10;15.60
10245;DHT22;5167;52.164;10.530;2023-02-24T08:26:50;6.00;15.00
10245;DHT22;5167;52.164;10.530;2023-02-24T08:29:33;6.00;15.40
10245;DHT22;5167;52.164;10.530;2023-02-24T08:32:35;6.00;14.40
10245;DHT22;5167;52.164;10.530;2023-02-24T08:35:10;6.00;15.00
10245;DHT22;5167;52.164;10.530;2023-02-24T08:37:44;6.00;14.50
10245;DHT22;5167;52.164;10.530;2023-02-24T08:40:18;6.00;15.70
10245;DHT22;5167;52.164;10.530;2023-02-24T08:43:10;6.00;15.70
10245;DHT22;5167;52.164;10.530;2023-02-24T08:48:52;6.00;15.10
10245;DHT22;5167;52.164;10.530;2023-02-24T08:51:22;6.00;14.10
10245;DHT22;5167;52.164;10.530;2023-02-24T08:53:50;5.90;15.20
10245;DHT22;5167;52.164;10.530;2023-02-24T08:56:24;6.00;16.30
10245;DHT22;5167;52.164;10.530;2023-02-24T08:58:56;6.10;15.90
10245;DHT22;5167;52.164;10.530;2023-02-24T09:01:27;6.10;15.90
10245;DHT22;5167;52.164;10.530;2023-02-24T09:04:00;6.10;15.20
10245;DHT22;5167;52.164;10.530;2023-02-24T09:06:45;6.20;15.10
10245;DHT22;5167;52.164;10.530;2023-02-24T09:09:17;6.10;12.90
10245;DHT22;5167;52.164;10.530;2023-02-24T09:14:21;6.10;14.80
10245;DHT22;5167;52.164;10.530;2023-02-24T09:16:49;6.10;15.70
10245;DHT22;5167;52.164;10.530;2023-02-24T09:22:28;6.20;14.90
10245;DHT22;5167;52.164;10.530;2023-02-24T09:25:01;6.20;14.10
10245;DHT22;5167;52.164;10.530;2023-02-24T09:27:54;6.20;14.70
10245;DHT22;5167;52.164;10.530;2023-02-24T09:30:37;6.10;14.90
10245;DHT22;5167;52.164;10.530;2023-02-24T09:33:09;6.10;15.60
10245;DHT22;5167;52.164;10.530;2023-02-24T09:35:52;6.10;15.00
10245;DHT22;5167;52.164;10.530;2023-02-24T09:38:21;6.10;14.90
10245;DHT22;5167;52.164;10.530;2023-02-24T09:41:20;6.20;15.20
10245;DHT22;5167;52.164;10.530;2023-02-24T09:43:56;6.20;15.10
10245;DHT22;5167;52.164;10.530;2023-02-24T09:46:36;6.20;16.20
10245;DHT22;5167;52.164;10.530;2023-02-24T09:49:17;6.20;16.90
10245;DHT22;5167;52.164;10.530;2023-02-24T09:51:43;6.10;19.10
10245;DHT22;5167;52.164;10.530;2023-02-24T09:54:18;6.20;20.20
10245;DHT22;5167;52.164;10.530;2023-02-24T09:56:55;6.10;21.70
10245;DHT22;5167;52.164;10.530;2023-02-24T09:59:45;6.00;22.90
10245;DHT22;5167;52.164;10.530;2023-02-24T10:02:36;6.00;24.60
10245;DHT22;5167;52.164;10.530;2023-02-24T10:05:27;5.80;26.30
10245;DHT22;5167;52.164;10.530;2023-02-24T10:07:58;5.70;29.10
10245;DHT22;5167;52.164;10.530;2023-02-24T10:10:28;5.60;30.60
10245;DHT22;5167;52.164;10.530;2023-02-24T10:13:12;5.60;32.50
10245;DHT22;5167;52.164;10.530;2023-02-24T10:15:43;5.70;32.80
10245;DHT22;5167;52.164;10.530;2023-02-24T10:18:28;5.60;33.70
10245;DHT22;5167;52.164;10.530;2023-02-24T10:23:47;5.50;35.60
10245;DHT22;5167;52.164;10.530;2023-02-24T10:26:26;5.60;36.90
10245;DHT22;5167;52.164;10.530;2023-02-24T10:31:46;5.40;38.50
10245;DHT22;5167;52.164;10.530;2023-02-24T10:34:14;5.40;39.30
10245;DHT22;5167;52.164;10.530;2023-02-24T10:36:49;5.40;39.70
10245;DHT22;5167;52.164;10.530;2023-02-24T10:39:21;5.30;41.00
10245;DHT22;5167;52.164;10.530;2023-02-24T10:41:56;5.20;42.60
10245;DHT22;5167;52.164;10.530;2023-02-24T10:44:24;5.30;43.30
10245;DHT22;5167;52.164;10.530;2023-02-24T10:49:51;5.30;45.60
10245;DHT22;5167;52.164;10.530;2023-02-24T10:52:34;5.30;46.50
10245;DHT22;5167;52.164;10.530;2023-02-24T10:55:31;5.30;48.30
10245;DHT22;5167;52.164;10.530;2023-02-24T10:58:14;5.30;49.00
10245;DHT22;5167;52.164;10.530;2023-02-24T11:00:47;5.30;49.50
10245;DHT22;5167;52.164;10.530;2023-02-24T11:03:27;5.30;49.90
10245;DHT22;5167;52.164;10.530;2023-02-24T11:06:22;5.30;50.80
10245;DHT22;5167;52.164;10.530;2023-02-24T11:09:21;5.30;51.60
10245;DHT22;5167;52.164;10.530;2023-02-24T11:14:58;5.40;52.70
10245;DHT22;5167;52.164;10.530;2023-02-24T11:17:54;5.40;53.00
10245;DHT22;5167;52.164;10.530;2023-02-24T11:20:36;5.40;53.00
10245;DHT22;5167;52.164;10.530;2023-02-24T11:23:05;5.40;53.00
10245;DHT22;5167;52.164;10.530;2023-02-24T11:25:39;5.50;53.40
10245;DHT22;5167;52.164;10.530;2023-02-24T11:28:23;5.40;53.40
10245;DHT22;5167;52.164;10.530;2023-02-24T11:31:21;5.30;54.10
10245;DHT22;5167;52.164;10.530;2023-02-24T11:34:06;5.30;54.70
10245;DHT22;5167;52.164;10.530;2023-02-24T11:36:50;5.20;54.70
10245;DHT22;5167;52.164;10.530;2023-02-24T11:41:53;5.20;55.80
10245;DHT22;5167;52.164;10.530;2023-02-24T11:47:19;5.00;59.10
10245;DHT22;5167;52.164;10.530;2023-02-24T11:49:52;5.00;60.70
10245;DHT22;5167;52.164;10.530;2023-02-24T11:52:24;5.10;61.90
10245;DHT22;5167;52.164;10.530;2023-02-24T11:54:55;5.20;61.90
10245;DHT22;5167;52.164;10.530;2023-02-24T11:57:42;5.10;63.40
10245;DHT22;5167;52.164;10.530;2023-02-24T12:00:19;5.20;61.90
10245;DHT22;5167;52.164;10.530;2023-02-24T12:05:37;5.20;61.60
10245;DHT22;5167;52.164;10.530;2023-02-24T12:08:30;5.10;61.10
10245;DHT22;5167;52.164;10.530;2023-02-24T12:11:13;5.10;61.50
10245;DHT22;5167;52.164;10.530;2023-02-24T12:13:47;5.10;63.50
10245;DHT22;5167;52.164;10.530;2023-02-24T12:16:23;5.10;63.90
10245;DHT22;5167;52.164;10.530;2023-02-24T12:18:57;5.10;63.90
10245;DHT22;5167;52.164;10.530;2023-02-24T12:21:28;5.10;63.50
10245;DHT22;5167;52.164;10.530;2023-02-24T12:23:57;5.00;64.20
10245;DHT22;5167;52.164;10.530;2023-02-24T12:26:32;5.20;64.50
10245;DHT22;5167;52.164;10.530;2023-02-24T12:35:32;5.10;65.10
10245;DHT22;5167;52.164;10.530;2023-02-24T12:38:57;5.30;64.70
10245;DHT22;5167;52.164;10.530;2023-02-24T12:44:15;5.10;63.80
10245;DHT22;5167;52.164;10.530;2023-02-24T12:46:45;5.10;64.30
10245;DHT22;5167;52.164;10.530;2023-02-24T12:49:19;5.10;64.80
10245;DHT22;5167;52.164;10.530;2023-02-24T12:51:55;5.00;66.30
10245;DHT22;5167;52.164;10.530;2023-02-24T12:54:27;4.90;66.60
10245;DHT22;5167;52.164;10.530;2023-02-24T12:57:10;4.90;67.80
10245;DHT22;5167;52.164;10.530;2023-02-24T12:59:39;4.90;69.40
10245;DHT22;5167;52.164;10.530;2023-02-24T13:04:55;5.00;68.80
10245;DHT22;5167;52.164;10.530;2023-02-24T13:10:08;4.90;69.50
10245;DHT22;5167;52.164;10.530;2023-02-24T13:13:29;4.90;70.70
10245;DHT22;5167;52.164;10.530;2023-02-24T13:15:28;5.00;71.80
10245;DHT22;5167;52.164;10.530;2023-02-24T13:17:57;5.00;71.70
10245;DHT22;5167;52.164;10.530;2023-02-24T13:20:34;5.00;70.80
10245;DHT22;5167;52.164;10.530;2023-02-24T13:23:03;5.00;70.60
10245;DHT22;5167;52.164;10.530;2023-02-24T13:25:49;5.00;70.70
10245;DHT22;5167;52.164;10.530;2023-02-24T13:31:07;5.00;70.30
10245;DHT22;5167;52.164;10.530;2023-02-24T13:33:36;5.00;69.40
10245;DHT22;5167;52.164;10.530;2023-02-24T13:38:41;4.80;71.70
10245;DHT22;5167;52.164;10.530;2023-02-24T13:44:00;4.80;73.30
10245;DHT22;5167;52.164;10.530;2023-02-24T13:49:29;4.70;72.60
10245;DHT22;5167;52.164;10.530;2023-02-24T13:52:06;4.70;73.00
10245;DHT22;5167;52.164;10.530;2023-02-24T13:54:54;4.80;72.70
10245;DHT22;5167;52.164;10.530;2023-02-24T13:58:15;4.70;72.60
10245;DHT22;5167;52.164;10.530;2023-02-24T14:03:00;4.60;73.10
10245;DHT22;5167;52.164;10.530;2023-02-24T14:05:34;4.60;74.70
10245;DHT22;5167;52.164;10.530;2023-02-24T14:08:00;4.60;76.30
10245;DHT22;5167;52.164;10.530;2023-02-24T14:10:30;4.60;76.50
10245;DHT22;5167;52.164;10.530;2023-02-24T14:13:13;4.60;77.70
10245;DHT22;5167;52.164;10.530;2023-02-24T14:15:42;4.70;79.50
10245;DHT22;5167;52.164;10.530;2023-02-24T14:18:19;4.60;81.70
10245;DHT22;5167;52.164;10.530;2023-02-24T14:20:45;4.60;83.60
10245;DHT22;5167;52.164;10.530;2023-02-24T14:23:23;4.60;84.50
10245;DHT22;5167;52.164;10.530;2023-02-24T14:25:58;4.80;83.80
10245;DHT22;5167;52.164;10.530;2023-02-24T14:28:30;4.80;83.40
10245;DHT22;5167;52.164;10.530;2023-02-24T14:30:58;4.80;83.30
10245;DHT22;5167;52.164;10.530;2023-02-24T14:33:28;4.80;84.70
10245;DHT22;5167;52.164;10.530;2023-02-24T14:35:54;4.80;84.80
10245;DHT22;5167;52.164;10.530;2023-02-24T14:38:35;4.80;86.00
10245;DHT22;5167;52.164;10.530;2023-02-24T14:41:03;5.00;85.70
10245;DHT22;5167;52.164;10.530;2023-02-24T14:43:29;4.90;84.50
10245;DHT22;5167;52.164;10.530;2023-02-24T14:45:55;4.90;84.60
10245;DHT22;5167;52.164;10.530;2023-02-24T14:48:24;5.00;83.60
10245;DHT22;5167;52.164;10.530;2023-02-24T14:50:51;4.90;83.80
10245;DHT22;5167;52.164;10.530;2023-02-24T14:53:19;5.00;84.00
10245;DHT22;5167;52.164;10.530;2023-02-24T14:55:48;5.10;83.70
10245;DHT22;5167;52.164;10.530;2023-02-24T14:58:22;5.00;83.10
10245;DHT22;5167;52.164;10.530;2023-02-24T15:00:52;5.10;81.50
10245;DHT22;5167;52.164;10.530;2023-02-24T15:03:43;5.10;81.90
10245;DHT22;5167;52.164;10.530;2023-02-24T15:06:19;5.10;82.20
10245;DHT22;5167;52.164;10.530;2023-02-24T15:08:49;5.10;79.30
10245;DHT22;5167;52.164;10.530;2023-02-24T15:13:53;5.00;78.90
10245;DHT22;5167;52.164;10.530;2023-02-24T15:16:27;5.00;78.80
10245;DHT22;5167;52.164;10.530;2023-02-24T15:18:56;5.00;79.60
10245;DHT22;5167;52.164;10.530;2023-02-24T15:21:28;5.00;80.30
10245;DHT22;5167;52.164;10.530;2023-02-24T15:24:03;5.10;80.80
10245;DHT22;5167;52.164;10.530;2023-02-24T15:26:37;5.20;80.90
10245;DHT22;5167;52.164;10.530;2023-02-24T15:29:19;5.20;80.90
10245;DHT22;5167;52.164;10.530;2023-02-24T15:31:46;5.30;80.40
10245;DHT22;5167;52.164;10.530;2023-02-24T15:34:17;5.30;78.80
10245;DHT22;5167;52.164;10.530;2023-02-24T15:36:44;5.40;78.80
10245;DHT22;5167;52.164;10.530;2023-02-24T15:39:17;5.40;78.40
10245;DHT22;5167;52.164;10.530;2023-02-24T15:41:46;5.40;77.30
10245;DHT22;5167;52.164;10.530;2023-02-24T15:46:50;5.70;77.00
10245;DHT22;5167;52.164;10.530;2023-02-24T15:49:15;5.50;75.80
10245;DHT22;5167;52.164;10.530;2023-02-24T15:51:43;5.40;76.20
10245;DHT22;5167;52.164;10.530;2023-02-24T15:54:18;5.50;76.50
10245;DHT22;5167;52.164;10.530;2023-02-24T15:56:45;5.40;76.00
10245;DHT22;5167;52.164;10.530;2023-02-24T15:59:16;5.40;75.90
10245;DHT22;5167;52.164;10.530;2023-02-24T16:01:43;5.40;76.70
10245;DHT22;5167;52.164;10.530;2023-02-24T16:04:08;5.50;76.10
10245;DHT22;5167;52.164;10.530;2023-02-24T16:06:35;5.50;76.40
10245;DHT22;5167;52.164;10.530;2023-02-24T16:09:12;5.60;75.60
10245;DHT22;5167;52.164;10.530;2023-02-24T16:11:40;5.70;75.60
10245;DHT22;5167;52.164;10.530;2023-02-24T16:14:12;5.60;75.50
10245;DHT22;5167;52.164;10.530;2023-02-24T16:16:39;5.60;75.80
10245;DHT22;5167;52.164;10.530;2023-02-24T16:19:06;5.60;76.30
10245;DHT22;5167;52.164;10.530;2023-02-24T16:21:32;5.60;76.00
10245;DHT22;5167;52.164;10.530;2023-02-24T16:23:58;5.60;74.80
10245;DHT22;5167;52.164;10.530;2023-02-24T16:26:23;5.60;75.50
10245;DHT22;5167;52.164;10.530;2023-02-24T16:28:53;5.70;74.60
10245;DHT22;5167;52.164;10.530;2023-02-24T16:31:20;5.70;74.90
10245;DHT22;5167;52.164;10.530;2023-02-24T16:33:45;5.70;74.30
10245;DHT22;5167;52.164;10.530;2023-02-24T16:36:11;5.70;74.20
10245;DHT22;5167;52.164;10.530;2023-02-24T16:38:38;5.80;75.30
10245;DHT22;5167;52.164;10.530;2023-02-24T16:41:03;5.80;74.90
10245;DHT22;5167;52.164;10.530;2023-02-24T16:43:29;5.80;74.10
10245;DHT22;5167;52.164;10.530;2023-02-24T16:46:00;5.80;74.10
10245;DHT22;5167;52.164;10.530;2023-02-24T16:48:27;5.90;74.10
10245;DHT22;5167;52.164;10.530;2023-02-24T16:50:53;5.90;74.50
10245;DHT22;5167;52.164;10.530;2023-02-24T16:53:21;5.90;74.00
10245;DHT22;5167;52.164;10.530;2023-02-24T16:55:47;5.80;73.30
10245;DHT22;5167;52.164;10.530;2023-02-24T16:58:13;5.90;73.70
10245;DHT22;5167;52.164;10.530;2023-02-24T17:00:40;5.90;73.70
10245;DHT22;5167;52.164;10.530;2023-02-24T17:03:14;6.00;73.30
10245;DHT22;5167;52.164;10.530;2023-02-24T17:05:41;5.90;73.90
10245;DHT22;5167;52.164;10.530;2023-02-24T17:08:07;5.90;74.30
10245;DHT22;5167;52.164;10.530;2023-02-24T17:10:35;6.00;75.00
10245;DHT22;5167;52.164;10.530;2023-02-24T17:13:04;5.90;75.20
10245;DHT22;5167;52.164;10.530;2023-02-24T17:15:30;6.00;75.00
10245;DHT22;5167;52.164;10.530;2023-02-24T17:17:55;6.10;73.80
10245;DHT22;5167;52.164;10.530;2023-02-24T17:20:21;6.00;74.10
10245;DHT22;5167;52.164;10.530;2023-02-24T17:22:47;6.00;74.40
10245;DHT22;5167;52.164;10.530;2023-02-24T17:25:25;6.00;73.60
10245;DHT22;5167;52.164;10.530;2023-02-24T17:27:52;6.00;74.30
10245;DHT22;5167;52.164;10.530;2023-02-24T17:30:21;6.00;74.70
10245;DHT22;5167;52.164;10.530;2023-02-24T17:32:47;6.00;74.10
10245;DHT22;5167;52.164;10.530;2023-02-24T17:35:13;6.00;74.30
10245;DHT22;5167;52.164;10.530;2023-02-24T17:37:38;6.10;73.10
10245;DHT22;5167;52.164;10.530;2023-02-24T17:40:05;6.20;73.10
10245;DHT22;5167;52.164;10.530;2023-02-24T17:42:31;6.10;71.20
10245;DHT22;5167;52.164;10.530;2023-02-24T17:44:57;6.20;71.00
10245;DHT22;5167;52.164;10.530;2023-02-24T17:47:23;6.20;71.50